createdAt,value
2022-11-16T00:01:48.735Z,8.80
2022-11-16T00:04:16.066Z,8.80
2022-11-16T00:06:43.393Z,8.80
2022-11-16T00:09:23.799Z,8.70
2022-11-16T00:11:54.234Z,8.70
2022-11-16T00:14:22.750Z,8.70
2022-11-16T00:16:49.968Z,8.70
2022-11-16T00:19:17.786Z,8.70
2022-11-16T00:21:45.291Z,8.70
2022-11-16T00:24:14.721Z,8.70
2022-11-16T00:26:42.567Z,8.60
2022-11-16T00:29:21.352Z,8.60
2022-11-16T00:31:48.947Z,8.60
2022-11-16T00:34:17.297Z,8.60
2022-11-16T00:36:44.934Z,8.60
2022-11-16T00:39:16.843Z,8.60
2022-11-16T00:41:47.461Z,8.60
2022-11-16T00:44:14.947Z,8.60
2022-11-16T00:46:42.690Z,8.60
2022-11-16T00:49:10.893Z,8.60
2022-11-16T00:51:38.526Z,8.60
2022-11-16T00:54:08.131Z,8.50
2022-11-16T00:56:37.735Z,8.50
2022-11-16T00:59:06.105Z,8.50
2022-11-16T01:01:33.712Z,8.50
2022-11-16T01:04:01.086Z,8.50
2022-11-16T01:06:28.311Z,8.50
2022-11-16T01:08:55.587Z,8.40
2022-11-16T01:11:43.036Z,8.50
2022-11-16T01:14:11.395Z,8.40
2022-11-16T01:16:38.691Z,8.40
2022-11-16T01:19:06.496Z,8.40
2022-11-16T01:21:34.378Z,8.40
2022-11-16T01:24:02.033Z,8.40
2022-11-16T01:26:29.471Z,8.40
2022-11-16T01:28:58.696Z,8.40
2022-11-16T01:31:28.309Z,8.40
2022-11-16T01:33:55.696Z,8.40
2022-11-16T01:36:27.034Z,8.40
2022-11-16T01:38:56.884Z,8.40
2022-11-16T01:41:27.956Z,8.50
2022-11-16T01:44:05.674Z,8.50
2022-11-16T01:46:39.169Z,8.50
2022-11-16T01:49:14.367Z,8.50
2022-11-16T01:51:49.821Z,8.50
2022-11-16T01:54:18.060Z,8.50
2022-11-16T01:57:09.546Z,8.50
2022-11-16T01:59:41.285Z,8.50
2022-11-16T02:02:16.023Z,8.60
2022-11-16T02:04:45.862Z,8.60
2022-11-16T02:08:27.788Z,8.50
2022-11-16T02:11:12.327Z,8.50
2022-11-16T02:14:10.442Z,8.50
2022-11-16T02:16:48.313Z,8.50
2022-11-16T02:19:54.946Z,8.50
2022-11-16T02:22:49.653Z,8.50
2022-11-16T02:25:49.930Z,8.50
2022-11-16T02:28:54.115Z,8.60
2022-11-16T02:31:27.886Z,8.60
2022-11-16T02:33:59.375Z,8.60
2022-11-16T02:36:27.083Z,8.60
2022-11-16T02:39:01.529Z,8.60
2022-11-16T02:41:33.698Z,8.60
2022-11-16T02:44:06.210Z,8.60
2022-11-16T02:46:38.934Z,8.60
2022-11-16T02:49:14.070Z,8.50
2022-11-16T02:51:42.998Z,8.60
2022-11-16T02:54:19.105Z,8.60
2022-11-16T02:57:13.630Z,8.60
2022-11-16T02:59:51.790Z,8.50
2022-11-16T03:02:28.540Z,8.60
2022-11-16T03:05:02.468Z,8.60
2022-11-16T03:07:52.399Z,8.60
2022-11-16T03:10:40.442Z,8.60
2022-11-16T03:13:11.531Z,8.50
2022-11-16T03:15:41.879Z,8.50
2022-11-16T03:18:15.941Z,8.50
2022-11-16T03:20:44.687Z,8.50
2022-11-16T03:23:13.538Z,8.50
2022-11-16T03:25:52.413Z,8.50
2022-11-16T03:28:36.616Z,8.50
2022-11-16T03:31:13.738Z,8.50
2022-11-16T03:33:48.165Z,8.50
2022-11-16T03:36:38.770Z,8.40
2022-11-16T03:39:14.728Z,8.50
2022-11-16T03:41:44.965Z,8.50
2022-11-16T03:44:15.078Z,8.50
2022-11-16T03:46:44.254Z,8.50
2022-11-16T03:49:13.334Z,8.50
2022-11-16T03:51:41.185Z,8.50
2022-11-16T03:54:08.444Z,8.50
2022-11-16T03:56:36.682Z,8.50
2022-11-16T03:59:04.686Z,8.50
2022-11-16T04:01:32.120Z,8.50
2022-11-16T04:04:00.619Z,8.50
2022-11-16T04:06:46.381Z,8.60
2022-11-16T04:09:22.688Z,8.60
2022-11-16T04:12:09.175Z,8.60
2022-11-16T04:14:56.506Z,8.60
2022-11-16T04:17:45.162Z,8.60
2022-11-16T04:20:33.659Z,8.60
2022-11-16T04:23:23.243Z,8.60
2022-11-16T04:25:52.403Z,8.70
2022-11-16T04:28:24.360Z,8.70
2022-11-16T04:31:17.389Z,8.70
2022-11-16T04:34:11.487Z,8.70
2022-11-16T04:37:03.504Z,8.60
2022-11-16T04:39:31.902Z,8.60
2022-11-16T04:42:14.525Z,8.60
2022-11-16T04:45:01.799Z,8.60
2022-11-16T04:47:36.095Z,8.60
2022-11-16T04:50:04.089Z,8.60
2022-11-16T04:52:31.880Z,8.60
2022-11-16T04:54:59.688Z,8.60
2022-11-16T04:57:28.205Z,8.60
2022-11-16T04:59:56.633Z,8.60
2022-11-16T05:02:25.230Z,8.60
2022-11-16T05:04:57.254Z,8.60
2022-11-16T05:07:25.978Z,8.60
2022-11-16T05:10:01.133Z,8.50
2022-11-16T05:12:29.247Z,8.50
2022-11-16T05:14:59.964Z,8.50
2022-11-16T05:17:30.475Z,8.50
2022-11-16T05:20:18.616Z,8.40
2022-11-16T05:22:55.293Z,8.40
2022-11-16T05:25:26.254Z,8.40
2022-11-16T05:27:54.386Z,8.30
2022-11-16T05:30:22.016Z,8.30
2022-11-16T05:32:49.703Z,8.30
2022-11-16T05:35:19.755Z,8.30
2022-11-16T05:37:47.713Z,8.30
2022-11-16T05:40:16.973Z,8.30
2022-11-16T05:42:58.673Z,8.30
2022-11-16T05:45:28.856Z,8.30
2022-11-16T05:47:58.690Z,8.30
2022-11-16T05:50:26.979Z,8.30
2022-11-16T05:53:06.472Z,8.30
2022-11-16T05:55:37.058Z,8.30
2022-11-16T05:58:04.580Z,8.30
2022-11-16T06:00:32.219Z,8.30
2022-11-16T06:03:00.206Z,8.30
2022-11-16T06:05:34.087Z,8.30
2022-11-16T06:08:04.178Z,8.30
2022-11-16T06:10:33.052Z,8.30
2022-11-16T06:13:00.961Z,8.30
2022-11-16T06:15:28.882Z,8.30
2022-11-16T06:17:56.378Z,8.30
2022-11-16T06:20:23.807Z,8.30
2022-11-16T06:22:53.274Z,8.30
2022-11-16T06:25:21.403Z,8.40
2022-11-16T06:27:49.003Z,8.40
2022-11-16T06:30:18.642Z,8.40
2022-11-16T06:32:46.159Z,8.50
2022-11-16T06:35:13.799Z,8.40
2022-11-16T06:37:42.122Z,8.50
2022-11-16T06:40:10.369Z,8.40
2022-11-16T06:42:41.898Z,8.50
2022-11-16T06:45:11.571Z,8.50
2022-11-16T06:47:42.802Z,8.40
2022-11-16T06:50:11.172Z,8.50
2022-11-16T06:52:39.450Z,8.50
2022-11-16T06:55:08.121Z,8.50
2022-11-16T06:57:37.317Z,8.40
2022-11-16T07:00:07.798Z,8.40
2022-11-16T07:02:38.843Z,8.40
2022-11-16T07:05:09.130Z,8.40
2022-11-16T07:07:36.862Z,8.40
2022-11-16T07:10:05.146Z,8.40
2022-11-16T07:12:32.995Z,8.40
2022-11-16T07:15:02.500Z,8.40
2022-11-16T07:17:33.661Z,8.40
2022-11-16T07:20:01.027Z,8.30
2022-11-16T07:22:29.683Z,8.40
2022-11-16T07:24:57.318Z,8.30
2022-11-16T07:27:24.873Z,8.30
2022-11-16T07:29:53.060Z,8.30
2022-11-16T07:32:39.816Z,8.30
2022-11-16T07:35:20.106Z,8.30
2022-11-16T07:37:48.031Z,8.30
2022-11-16T07:40:16.451Z,8.30
2022-11-16T07:42:45.811Z,8.30
2022-11-16T07:45:28.201Z,8.30
2022-11-16T07:48:00.578Z,8.30
2022-11-16T07:51:04.327Z,8.20
2022-11-16T07:53:34.688Z,8.30
2022-11-16T07:56:03.488Z,8.20
2022-11-16T07:58:33.750Z,8.20
2022-11-16T08:01:14.676Z,8.20
2022-11-16T08:03:44.222Z,8.20
2022-11-16T08:06:17.733Z,8.10
2022-11-16T08:08:45.270Z,8.10
2022-11-16T08:11:13.752Z,8.00
2022-11-16T08:13:42.793Z,8.00
2022-11-16T08:16:16.419Z,8.00
2022-11-16T08:18:46.961Z,8.00
2022-11-16T08:21:18.431Z,7.90
2022-11-16T08:23:46.832Z,7.90
2022-11-16T08:26:17.992Z,8.00
2022-11-16T08:28:51.253Z,8.00
2022-11-16T08:31:22.200Z,8.00
2022-11-16T08:33:53.314Z,8.00
2022-11-16T08:36:21.399Z,8.00
2022-11-16T08:38:51.325Z,8.00
2022-11-16T08:41:21.675Z,8.00
2022-11-16T08:43:50.744Z,8.00
2022-11-16T08:46:20.687Z,8.10
2022-11-16T08:48:58.000Z,8.10
2022-11-16T08:51:25.714Z,8.10
2022-11-16T08:54:03.882Z,8.10
2022-11-16T08:56:32.591Z,8.10
2022-11-16T08:59:00.110Z,8.10
2022-11-16T09:01:31.506Z,8.10
2022-11-16T09:04:00.012Z,8.10
2022-11-16T09:06:28.310Z,8.10
2022-11-16T09:08:56.426Z,8.20
2022-11-16T09:11:25.575Z,8.20
2022-11-16T09:13:54.902Z,8.20
2022-11-16T09:16:23.730Z,8.20
2022-11-16T09:18:51.740Z,8.20
2022-11-16T09:21:29.178Z,8.20
2022-11-16T09:23:57.706Z,8.20
2022-11-16T09:26:26.336Z,8.20
2022-11-16T09:28:56.031Z,8.30
2022-11-16T09:31:24.870Z,8.30
2022-11-16T09:33:52.450Z,8.30
2022-11-16T09:36:21.281Z,8.30
2022-11-16T09:39:26.197Z,8.40
2022-11-16T09:41:55.551Z,8.40
2022-11-16T09:44:48.870Z,8.40
2022-11-16T09:47:22.307Z,8.40
2022-11-16T09:49:58.369Z,8.50
2022-11-16T09:52:34.782Z,8.40
2022-11-16T09:55:19.167Z,8.50
2022-11-16T09:57:48.119Z,8.50
2022-11-16T10:00:20.206Z,8.60
2022-11-16T10:03:12.204Z,8.60
2022-11-16T10:06:03.270Z,8.70
2022-11-16T10:08:45.745Z,8.80
2022-11-16T10:11:56.378Z,8.80
2022-11-16T10:14:38.596Z,8.80
2022-11-16T10:17:27.801Z,8.90
2022-11-16T10:20:30.692Z,8.90
2022-11-16T10:23:29.316Z,8.90
2022-11-16T10:26:16.943Z,8.90
2022-11-16T10:28:56.637Z,9.00
2022-11-16T10:31:53.059Z,9.00
2022-11-16T10:34:24.990Z,9.00
2022-11-16T10:36:57.731Z,9.10
2022-11-16T10:39:25.941Z,9.10
2022-11-16T10:41:53.616Z,9.10
2022-11-16T10:44:27.040Z,9.20
2022-11-16T10:47:04.627Z,9.20
2022-11-16T10:49:41.031Z,9.30
2022-11-16T10:52:08.566Z,9.30
2022-11-16T10:54:38.875Z,9.30
2022-11-16T10:57:16.322Z,9.40
2022-11-16T10:59:50.027Z,9.40
2022-11-16T11:02:20.572Z,9.40
2022-11-16T11:05:22.723Z,9.40
2022-11-16T11:07:59.774Z,9.50
2022-11-16T11:10:33.110Z,9.50
2022-11-16T11:13:12.146Z,9.50
2022-11-16T11:15:41.686Z,9.50
2022-11-16T11:18:24.450Z,9.50
2022-11-16T11:20:58.623Z,9.50
2022-11-16T11:23:27.306Z,9.50
2022-11-16T11:26:00.136Z,9.50
2022-11-16T11:28:33.527Z,9.40
2022-11-16T11:31:26.002Z,9.40
2022-11-16T11:34:00.694Z,9.40
2022-11-16T11:36:35.446Z,9.40
2022-11-16T11:39:04.943Z,9.40
2022-11-16T11:41:41.122Z,9.40
2022-11-16T11:44:19.398Z,9.40
2022-11-16T11:47:42.349Z,9.50
2022-11-16T11:49:52.257Z,9.50
2022-11-16T11:52:27.767Z,9.60
2022-11-16T11:54:56.931Z,9.50
2022-11-16T11:57:25.693Z,9.60
2022-11-16T11:59:54.766Z,9.60
2022-11-16T12:02:36.723Z,9.70
2022-11-16T12:05:28.276Z,9.70
2022-11-16T12:07:55.658Z,9.80
2022-11-16T12:10:36.772Z,9.80
2022-11-16T12:13:29.366Z,9.90
2022-11-16T12:16:27.358Z,9.90
2022-11-16T12:19:25.650Z,9.90
2022-11-16T12:22:05.073Z,10.00
2022-11-16T12:24:47.418Z,10.00
2022-11-16T12:27:39.198Z,10.00
2022-11-16T12:30:23.423Z,10.00
2022-11-16T12:33:23.600Z,10.00
2022-11-16T12:36:05.102Z,10.00
2022-11-16T12:39:00.794Z,10.00
2022-11-16T12:41:50.879Z,10.00
2022-11-16T12:44:47.612Z,9.90
2022-11-16T12:47:14.961Z,10.00
2022-11-16T12:50:03.067Z,10.00
2022-11-16T12:52:48.771Z,10.00
2022-11-16T12:55:25.928Z,10.10
2022-11-16T12:58:13.787Z,10.10
2022-11-16T13:01:19.638Z,10.20
2022-11-16T13:03:55.711Z,10.30
2022-11-16T13:06:42.688Z,10.30
2022-11-16T13:09:16.282Z,10.30
2022-11-16T13:11:57.313Z,10.30
2022-11-16T13:14:38.895Z,10.30
2022-11-16T13:17:07.602Z,10.40
2022-11-16T13:19:43.763Z,10.40
2022-11-16T13:22:21.662Z,10.50
2022-11-16T13:25:17.418Z,10.50
2022-11-16T13:27:53.707Z,10.50
2022-11-16T13:30:42.769Z,10.50
2022-11-16T13:33:26.987Z,10.60
2022-11-16T13:35:54.442Z,10.60
2022-11-16T13:38:53.641Z,10.60
2022-11-16T13:41:38.613Z,10.70
2022-11-16T13:44:29.967Z,10.70
2022-11-16T13:47:06.634Z,10.70
2022-11-16T13:49:42.954Z,10.70
2022-11-16T13:52:40.426Z,10.70
2022-11-16T13:55:16.107Z,10.70
2022-11-16T13:57:52.039Z,10.70
2022-11-16T14:00:42.359Z,10.70
2022-11-16T14:03:16.053Z,10.80
2022-11-16T14:05:46.772Z,10.80
2022-11-16T14:08:24.289Z,10.80
2022-11-16T14:10:51.623Z,10.80
2022-11-16T14:13:39.672Z,10.70
2022-11-16T14:16:20.104Z,10.70
2022-11-16T14:18:52.885Z,10.70
2022-11-16T14:21:20.356Z,10.70
2022-11-16T14:24:12.322Z,10.60
2022-11-16T14:27:01.661Z,10.60
2022-11-16T14:29:58.730Z,10.60
2022-11-16T14:32:32.068Z,10.60
2022-11-16T14:35:03.084Z,10.60
2022-11-16T14:37:37.617Z,10.60
2022-11-16T14:40:08.078Z,10.50
2022-11-16T14:43:09.500Z,10.50
2022-11-16T14:45:37.062Z,10.50
2022-11-16T14:48:14.641Z,10.50
2022-11-16T14:50:45.739Z,10.40
2022-11-16T14:53:18.206Z,10.40
2022-11-16T14:55:46.200Z,10.50
2022-11-16T14:58:22.123Z,10.40
2022-11-16T15:00:59.175Z,10.30
2022-11-16T15:03:31.371Z,10.30
2022-11-16T15:06:01.064Z,10.40
2022-11-16T15:08:37.212Z,10.30
2022-11-16T15:11:10.263Z,10.30
2022-11-16T15:13:37.875Z,10.30
2022-11-16T15:16:17.819Z,10.40
2022-11-16T15:18:59.819Z,10.40
2022-11-16T15:21:28.071Z,10.40
2022-11-16T15:26:46.142Z,10.50
2022-11-16T15:29:21.684Z,10.50
2022-11-16T15:31:49.280Z,10.50
2022-11-16T15:34:18.694Z,10.50
2022-11-16T15:36:47.467Z,10.60
2022-11-16T15:39:20.536Z,10.60
2022-11-16T15:41:49.246Z,10.60
2022-11-16T15:44:19.328Z,10.60
2022-11-16T15:46:50.264Z,10.60
2022-11-16T15:49:33.754Z,10.60
2022-11-16T15:52:01.919Z,10.60
2022-11-16T15:54:51.516Z,10.60
2022-11-16T15:57:20.544Z,10.60
2022-11-16T15:59:54.759Z,10.60
2022-11-16T16:02:25.778Z,10.60
2022-11-16T16:04:53.295Z,10.60
2022-11-16T16:07:39.516Z,10.60
2022-11-16T16:10:19.264Z,10.60
2022-11-16T16:12:58.231Z,10.60
2022-11-16T16:15:30.033Z,10.50
2022-11-16T16:17:59.002Z,10.50
2022-11-16T16:20:31.167Z,10.50
2022-11-16T16:23:11.383Z,10.50
2022-11-16T16:25:39.006Z,10.50
2022-11-16T16:28:06.571Z,10.50
2022-11-16T16:30:34.976Z,10.50
2022-11-16T16:33:02.475Z,10.50
2022-11-16T16:35:30.005Z,10.50
2022-11-16T16:38:00.702Z,10.50
2022-11-16T16:40:29.199Z,10.50
2022-11-16T16:42:57.862Z,10.60
2022-11-16T16:45:38.598Z,10.60
2022-11-16T16:48:06.363Z,10.60
2022-11-16T16:50:33.791Z,10.60
2022-11-16T16:53:01.358Z,10.50
2022-11-16T16:55:31.682Z,10.50
2022-11-16T16:58:02.881Z,10.50
2022-11-16T17:00:30.661Z,10.40
2022-11-16T17:03:01.068Z,10.40
2022-11-16T17:05:30.834Z,10.30
2022-11-16T17:07:58.232Z,10.30
2022-11-16T17:10:25.897Z,10.20
2022-11-16T17:12:54.089Z,10.20
2022-11-16T17:15:21.827Z,10.10
2022-11-16T17:17:49.170Z,10.00
2022-11-16T17:20:17.040Z,9.90
2022-11-16T17:22:44.573Z,9.80
2022-11-16T17:25:12.315Z,9.80
2022-11-16T17:27:39.786Z,9.90
2022-11-16T17:30:08.236Z,9.70
2022-11-16T17:32:35.722Z,9.70
2022-11-16T17:35:03.339Z,9.70
2022-11-16T17:37:30.705Z,9.70
2022-11-16T17:39:58.118Z,9.60
2022-11-16T17:42:25.614Z,9.60
2022-11-16T17:44:53.915Z,9.60
2022-11-16T17:47:21.277Z,9.60
2022-11-16T17:49:48.619Z,9.70
2022-11-16T17:52:16.245Z,9.60
2022-11-16T17:54:43.629Z,9.60
2022-11-16T17:57:11.394Z,9.60
2022-11-16T17:59:38.808Z,9.60
2022-11-16T18:02:06.412Z,9.70
2022-11-16T18:04:33.845Z,9.70
2022-11-16T18:07:01.346Z,9.70
2022-11-16T18:09:29.151Z,9.70
2022-11-16T18:11:56.606Z,9.70
2022-11-16T18:14:23.985Z,9.70
2022-11-16T18:16:51.331Z,9.70
2022-11-16T18:19:19.870Z,9.80
2022-11-16T18:21:48.706Z,9.80
2022-11-16T18:24:15.964Z,9.80
2022-11-16T18:26:43.636Z,9.80
2022-11-16T18:29:15.877Z,9.90
2022-11-16T18:31:43.379Z,9.90
2022-11-16T18:34:14.591Z,10.00
2022-11-16T18:36:42.086Z,10.00
2022-11-16T18:39:09.611Z,10.00
2022-11-16T18:41:42.914Z,10.10
2022-11-16T18:44:13.434Z,10.10
2022-11-16T18:46:42.577Z,10.10
2022-11-16T18:49:10.020Z,10.10
2022-11-16T18:51:37.365Z,10.20
2022-11-16T18:54:04.912Z,10.20
2022-11-16T18:56:32.490Z,10.20
2022-11-16T18:58:59.991Z,10.20
2022-11-16T19:01:27.820Z,10.30
2022-11-16T19:03:56.478Z,10.30
2022-11-16T19:06:24.270Z,10.30
2022-11-16T19:08:59.675Z,10.30
2022-11-16T19:11:28.438Z,10.40
2022-11-16T19:14:07.491Z,10.40
2022-11-16T19:16:35.901Z,10.40
2022-11-16T19:19:03.974Z,10.40
2022-11-16T19:21:31.606Z,10.50
2022-11-16T19:23:59.069Z,10.50
2022-11-16T19:26:27.446Z,10.50
2022-11-16T19:28:54.874Z,10.50
2022-11-16T19:31:25.951Z,10.50
2022-11-16T19:33:55.097Z,10.50
2022-11-16T19:36:23.707Z,10.50
2022-11-16T19:38:51.751Z,10.50
2022-11-16T19:41:21.327Z,10.50
2022-11-16T19:43:52.359Z,10.50
2022-11-16T19:46:24.227Z,10.50
2022-11-16T19:48:52.132Z,10.50
2022-11-16T19:51:24.776Z,10.50
2022-11-16T19:53:52.677Z,10.50
2022-11-16T19:56:22.418Z,10.40
2022-11-16T19:58:50.082Z,10.40
2022-11-16T20:01:27.640Z,10.40
2022-11-16T20:03:57.199Z,10.40
2022-11-16T20:06:29.013Z,10.50
2022-11-16T20:09:00.303Z,10.50
2022-11-16T20:11:29.902Z,10.50
2022-11-16T20:13:58.386Z,10.50
2022-11-16T20:16:39.025Z,10.60
2022-11-16T20:19:08.468Z,10.60
2022-11-16T20:21:40.985Z,10.60
2022-11-16T20:24:13.242Z,10.70
2022-11-16T20:26:43.995Z,10.70
2022-11-16T20:29:16.216Z,10.70
2022-11-16T20:31:45.255Z,10.70
2022-11-16T20:34:17.039Z,10.70
2022-11-16T20:36:46.685Z,10.80
2022-11-16T20:39:15.990Z,10.80
2022-11-16T20:41:44.115Z,10.80
2022-11-16T20:44:16.680Z,10.80
2022-11-16T20:46:45.141Z,10.90
2022-11-16T20:49:13.021Z,10.90
2022-11-16T20:51:40.600Z,10.90
2022-11-16T20:54:08.062Z,10.90
2022-11-16T20:56:35.442Z,10.90
2022-11-16T20:59:02.719Z,10.90
2022-11-16T21:01:32.787Z,10.90
2022-11-16T21:04:03.111Z,10.90
2022-11-16T21:06:31.502Z,10.90
2022-11-16T21:08:59.951Z,10.90
2022-11-16T21:11:30.389Z,10.90
2022-11-16T21:14:15.817Z,10.90
2022-11-16T21:16:43.960Z,10.90
2022-11-16T21:19:11.942Z,10.80
2022-11-16T21:21:40.732Z,10.90
2022-11-16T21:24:09.016Z,10.90
2022-11-16T21:26:37.208Z,10.90
2022-11-16T21:29:04.999Z,10.90
2022-11-16T21:31:34.774Z,10.90
2022-11-16T21:34:02.573Z,10.90
2022-11-16T21:36:31.232Z,10.90
2022-11-16T21:38:59.235Z,10.90
2022-11-16T21:41:27.207Z,10.90
2022-11-16T21:43:54.919Z,10.90
2022-11-16T21:46:24.949Z,10.90
2022-11-16T21:48:54.155Z,10.90
2022-11-16T21:51:24.720Z,10.90
2022-11-16T21:53:52.277Z,10.90
2022-11-16T21:56:21.760Z,10.90
2022-11-16T21:58:55.511Z,11.00
2022-11-16T22:01:23.623Z,10.90
2022-11-16T22:04:10.930Z,10.90
2022-11-16T22:06:56.863Z,10.90
2022-11-16T22:09:24.162Z,10.90
2022-11-16T22:11:51.511Z,10.90
2022-11-16T22:14:18.765Z,10.90
2022-11-16T22:16:46.007Z,10.90
2022-11-16T22:19:13.212Z,10.90
2022-11-16T22:21:40.422Z,11.00
2022-11-16T22:24:08.127Z,10.90
2022-11-16T22:26:35.594Z,10.90
2022-11-16T22:29:02.957Z,10.90
2022-11-16T22:31:30.157Z,10.90
2022-11-16T22:33:57.360Z,10.90
2022-11-16T22:36:24.742Z,10.80
2022-11-16T22:38:52.532Z,10.80
2022-11-16T22:41:20.739Z,10.80
2022-11-16T22:43:48.082Z,10.80
2022-11-16T22:46:15.654Z,10.80
2022-11-16T22:48:44.011Z,10.80
2022-11-16T22:51:23.001Z,10.80
2022-11-16T22:53:55.829Z,10.70
2022-11-16T22:56:24.334Z,10.70
2022-11-16T22:58:52.215Z,10.70
2022-11-16T23:01:20.131Z,10.70
2022-11-16T23:03:48.084Z,10.70
2022-11-16T23:06:16.173Z,10.70
2022-11-16T23:08:43.559Z,10.70
2022-11-16T23:11:35.595Z,10.70
2022-11-16T23:14:22.460Z,10.70
2022-11-16T23:16:50.190Z,10.60
2022-11-16T23:19:38.677Z,10.60
2022-11-16T23:22:26.023Z,10.70
2022-11-16T23:25:11.963Z,10.70
2022-11-16T23:28:01.004Z,10.70
2022-11-16T23:30:28.406Z,10.70
2022-11-16T23:32:55.835Z,10.70
2022-11-16T23:35:23.465Z,10.70
2022-11-16T23:38:05.515Z,10.70
2022-11-16T23:40:35.794Z,10.80
2022-11-16T23:43:22.871Z,10.80
2022-11-16T23:45:50.632Z,10.80
2022-11-16T23:48:19.015Z,10.80
2022-11-16T23:50:46.688Z,10.80
2022-11-16T23:53:14.317Z,10.80
2022-11-16T23:55:41.774Z,10.80
2022-11-16T23:58:14.520Z,10.80
